Archival Weather

Chicago O'Hare International

Chicago, Illinois (KORD)

Report from: Tuesday, December 27, 2022 3:51 AM CST
Current time: Friday, June 14, 2024 6:36 AM CDT

Current weather – Weather history – Daily summaries
Weather forecast

Temperature-12.8°C (9.0°F)
Wind chill-18.3°C (-0.9°F)
Dew point-16.1°C (3.0°F)
Winds 5 kts (2.6 m/s, 5.8 mph) Southwest (220°)
Visibility10 mi. (16.1 km)
Clouds Few clouds 25,000 ft. (7,620 m)
Altimeter30.22 in.Hg (1023 mB)
Relative humidity76 %
Density altitude-3,864 ft. (-1,178 m)
Sea-level pressure102.5 kPa (1025 mB, 30.26 in.Hg)
Remarks System requires maintenance
Automated weather observing station with precipitation discriminator
Flight conditions Visual Meteorological Conditions
Raw dataKORD 270951Z 22005KT 10SM FEW250 M13/M16 A3022 RMK AO2 SLP248 T11281161 $
An error has occurred. This application may no longer respond until reloaded. Reload 🗙